Converse, South Carolina
Current Conditions -  °F | °C
As of 4:35 PM on Saturday 20 Dec 2014 (Local Time) from KSPA Reporting Station
Broken Clouds Broken Clouds  
Wind Chill: 45°   Ceiling: 1900
Heat Index: 45°   Visibility: 10mi
Dew Point: 43°   Wind: 3mph
Humidity: 93%   Direction: 50°NE
Pressure: 30.2"   Gusts: NA
Location:  34.99°N, 81.83°W
Report Text: KSPA 202135Z AUTO 05003KT 10SM BKN019 07/06 A3020 RMK AO2
Loading
Personal Weather Stations






























Interactive Weather Map New forecast layout! Learn more

10-Day Weather Forecast

Advertisements
Track Severe Weather on mobile